sensor_id;sensor_type;location;lat;lon;timestamp;P1;durP1;ratioP1;P2;durP2;ratioP2
15488;SDS011;7846;48.830;9.116;2023-03-14T00:00:32;0.83;;;0.50;;
15488;SDS011;7846;48.830;9.116;2023-03-14T00:02:59;1.00;;;0.57;;
15488;SDS011;7846;48.830;9.116;2023-03-14T00:05:25;1.40;;;0.57;;
15488;SDS011;7846;48.830;9.116;2023-03-14T00:07:50;0.73;;;0.60;;
15488;SDS011;7846;48.830;9.116;2023-03-14T00:10:16;0.60;;;0.60;;
15488;SDS011;7846;48.830;9.116;2023-03-14T00:12:42;0.50;;;0.50;;
15488;SDS011;7846;48.830;9.116;2023-03-14T00:15:08;0.57;;;0.40;;
15488;SDS011;7846;48.830;9.116;2023-03-14T00:17:35;0.50;;;0.50;;
15488;SDS011;7846;48.830;9.116;2023-03-14T00:20:01;0.33;;;0.33;;
15488;SDS011;7846;48.830;9.116;2023-03-14T00:22:35;1.80;;;0.70;;
15488;SDS011;7846;48.830;9.116;2023-03-14T00:25:01;0.70;;;0.50;;
15488;SDS011;7846;48.830;9.116;2023-03-14T00:27:27;0.30;;;0.30;;
15488;SDS011;7846;48.830;9.116;2023-03-14T00:29:52;0.70;;;0.60;;
15488;SDS011;7846;48.830;9.116;2023-03-14T00:32:18;0.50;;;0.50;;
15488;SDS011;7846;48.830;9.116;2023-03-14T00:34:44;0.77;;;0.40;;
15488;SDS011;7846;48.830;9.116;2023-03-14T00:37:09;0.90;;;0.70;;
15488;SDS011;7846;48.830;9.116;2023-03-14T00:39:35;0.90;;;0.50;;
15488;SDS011;7846;48.830;9.116;2023-03-14T00:42:00;0.77;;;0.53;;
15488;SDS011;7846;48.830;9.116;2023-03-14T00:44:25;0.70;;;0.53;;
15488;SDS011;7846;48.830;9.116;2023-03-14T00:46:51;0.70;;;0.50;;
15488;SDS011;7846;48.830;9.116;2023-03-14T00:49:16;0.60;;;0.60;;
15488;SDS011;7846;48.830;9.116;2023-03-14T00:51:43;0.50;;;0.50;;
15488;SDS011;7846;48.830;9.116;2023-03-14T00:54:09;0.40;;;0.40;;
15488;SDS011;7846;48.830;9.116;2023-03-14T00:56:34;0.60;;;0.60;;
15488;SDS011;7846;48.830;9.116;2023-03-14T00:58:59;0.60;;;0.60;;
15488;SDS011;7846;48.830;9.116;2023-03-14T01:01:26;1.03;;;0.50;;
15488;SDS011;7846;48.830;9.116;2023-03-14T01:03:52;0.63;;;0.60;;
15488;SDS011;7846;48.830;9.116;2023-03-14T01:06:19;0.60;;;0.60;;
15488;SDS011;7846;48.830;9.116;2023-03-14T01:08:46;0.50;;;0.50;;
15488;SDS011;7846;48.830;9.116;2023-03-14T01:11:14;0.40;;;0.40;;
15488;SDS011;7846;48.830;9.116;2023-03-14T01:13:42;0.57;;;0.50;;
15488;SDS011;7846;48.830;9.116;2023-03-14T01:16:08;0.40;;;0.40;;
15488;SDS011;7846;48.830;9.116;2023-03-14T01:18:35;0.30;;;0.30;;
15488;SDS011;7846;48.830;9.116;2023-03-14T01:21:02;0.37;;;0.37;;
15488;SDS011;7846;48.830;9.116;2023-03-14T01:23:28;0.50;;;0.50;;
15488;SDS011;7846;48.830;9.116;2023-03-14T01:25:54;0.50;;;0.50;;
15488;SDS011;7846;48.830;9.116;2023-03-14T01:28:19;0.40;;;0.40;;
15488;SDS011;7846;48.830;9.116;2023-03-14T01:30:45;0.43;;;0.40;;
15488;SDS011;7846;48.830;9.116;2023-03-14T01:33:12;0.40;;;0.40;;
15488;SDS011;7846;48.830;9.116;2023-03-14T01:35:39;2.37;;;0.70;;
15488;SDS011;7846;48.830;9.116;2023-03-14T01:38:04;0.70;;;0.40;;
15488;SDS011;7846;48.830;9.116;2023-03-14T01:40:30;0.40;;;0.40;;
15488;SDS011;7846;48.830;9.116;2023-03-14T01:42:57;0.40;;;0.40;;
15488;SDS011;7846;48.830;9.116;2023-03-14T01:48:28;0.50;;;0.50;;
15488;SDS011;7846;48.830;9.116;2023-03-14T01:50:58;0.60;;;0.50;;
15488;SDS011;7846;48.830;9.116;2023-03-14T01:53:26;0.50;;;0.50;;
15488;SDS011;7846;48.830;9.116;2023-03-14T01:55:52;1.13;;;0.50;;
15488;SDS011;7846;48.830;9.116;2023-03-14T01:58:21;0.43;;;0.43;;
15488;SDS011;7846;48.830;9.116;2023-03-14T02:00:50;0.57;;;0.50;;
15488;SDS011;7846;48.830;9.116;2023-03-14T02:03:16;0.50;;;0.50;;
15488;SDS011;7846;48.830;9.116;2023-03-14T02:05:43;1.17;;;0.40;;
15488;SDS011;7846;48.830;9.116;2023-03-14T02:08:10;1.73;;;0.57;;
15488;SDS011;7846;48.830;9.116;2023-03-14T02:10:40;0.50;;;0.50;;
15488;SDS011;7846;48.830;9.116;2023-03-14T02:13:08;0.30;;;0.30;;
15488;SDS011;7846;48.830;9.116;2023-03-14T02:15:34;0.73;;;0.50;;
15488;SDS011;7846;48.830;9.116;2023-03-14T02:18:02;0.83;;;0.50;;
15488;SDS011;7846;48.830;9.116;2023-03-14T02:23:00;1.13;;;0.40;;
15488;SDS011;7846;48.830;9.116;2023-03-14T02:25:38;1.67;;;0.60;;
15488;SDS011;7846;48.830;9.116;2023-03-14T02:28:09;0.50;;;0.50;;
15488;SDS011;7846;48.830;9.116;2023-03-14T02:30:35;0.70;;;0.70;;
15488;SDS011;7846;48.830;9.116;2023-03-14T02:33:05;0.50;;;0.50;;
15488;SDS011;7846;48.830;9.116;2023-03-14T02:35:38;1.37;;;0.40;;
15488;SDS011;7846;48.830;9.116;2023-03-14T02:38:29;0.60;;;0.60;;
15488;SDS011;7846;48.830;9.116;2023-03-14T02:40:59;0.60;;;0.60;;
15488;SDS011;7846;48.830;9.116;2023-03-14T02:43:25;0.97;;;0.50;;
15488;SDS011;7846;48.830;9.116;2023-03-14T02:45:51;1.17;;;0.50;;
15488;SDS011;7846;48.830;9.116;2023-03-14T02:48:21;0.97;;;0.50;;
15488;SDS011;7846;48.830;9.116;2023-03-14T02:50:50;2.23;;;0.40;;
15488;SDS011;7846;48.830;9.116;2023-03-14T02:53:19;0.40;;;0.40;;
15488;SDS011;7846;48.830;9.116;2023-03-14T02:55:48;0.40;;;0.40;;
15488;SDS011;7846;48.830;9.116;2023-03-14T02:58:14;1.20;;;0.63;;
15488;SDS011;7846;48.830;9.116;2023-03-14T03:00:40;1.30;;;0.50;;
15488;SDS011;7846;48.830;9.116;2023-03-14T03:03:05;1.20;;;0.60;;
15488;SDS011;7846;48.830;9.116;2023-03-14T03:05:32;1.73;;;0.80;;
15488;SDS011;7846;48.830;9.116;2023-03-14T03:07:57;2.33;;;0.60;;
15488;SDS011;7846;48.830;9.116;2023-03-14T03:10:23;2.63;;;0.60;;
15488;SDS011;7846;48.830;9.116;2023-03-14T03:12:48;1.03;;;0.40;;
15488;SDS011;7846;48.830;9.116;2023-03-14T03:15:14;0.50;;;0.50;;
15488;SDS011;7846;48.830;9.116;2023-03-14T03:17:39;0.93;;;0.50;;
15488;SDS011;7846;48.830;9.116;2023-03-14T03:20:05;1.53;;;0.70;;
15488;SDS011;7846;48.830;9.116;2023-03-14T03:22:34;1.13;;;0.70;;
15488;SDS011;7846;48.830;9.116;2023-03-14T03:24:59;1.50;;;0.60;;
15488;SDS011;7846;48.830;9.116;2023-03-14T03:27:25;1.13;;;0.60;;
15488;SDS011;7846;48.830;9.116;2023-03-14T03:29:50;1.40;;;0.77;;
15488;SDS011;7846;48.830;9.116;2023-03-14T03:32:16;3.07;;;0.77;;
15488;SDS011;7846;48.830;9.116;2023-03-14T03:34:41;1.23;;;0.50;;
15488;SDS011;7846;48.830;9.116;2023-03-14T03:37:07;0.87;;;0.60;;
15488;SDS011;7846;48.830;9.116;2023-03-14T03:39:32;1.37;;;0.70;;
15488;SDS011;7846;48.830;9.116;2023-03-14T03:41:57;1.23;;;0.50;;
15488;SDS011;7846;48.830;9.116;2023-03-14T03:44:24;0.63;;;0.63;;
15488;SDS011;7846;48.830;9.116;2023-03-14T03:46:49;0.87;;;0.60;;
15488;SDS011;7846;48.830;9.116;2023-03-14T03:49:14;0.60;;;0.60;;
15488;SDS011;7846;48.830;9.116;2023-03-14T03:51:40;0.83;;;0.47;;
15488;SDS011;7846;48.830;9.116;2023-03-14T03:54:05;1.60;;;0.90;;
15488;SDS011;7846;48.830;9.116;2023-03-14T03:56:31;3.53;;;0.80;;
15488;SDS011;7846;48.830;9.116;2023-03-14T03:58:56;1.13;;;0.70;;
15488;SDS011;7846;48.830;9.116;2023-03-14T04:01:23;1.50;;;0.63;;
15488;SDS011;7846;48.830;9.116;2023-03-14T04:03:48;1.03;;;0.70;;
15488;SDS011;7846;48.830;9.116;2023-03-14T04:06:15;1.00;;;0.60;;
15488;SDS011;7846;48.830;9.116;2023-03-14T04:08:40;1.43;;;0.70;;
15488;SDS011;7846;48.830;9.116;2023-03-14T04:11:06;1.33;;;0.73;;
15488;SDS011;7846;48.830;9.116;2023-03-14T04:13:32;1.97;;;0.60;;
15488;SDS011;7846;48.830;9.116;2023-03-14T04:15:57;4.10;;;0.70;;
15488;SDS011;7846;48.830;9.116;2023-03-14T04:18:23;1.00;;;0.60;;
15488;SDS011;7846;48.830;9.116;2023-03-14T04:20:51;3.50;;;1.03;;
15488;SDS011;7846;48.830;9.116;2023-03-14T04:23:21;1.40;;;0.97;;
15488;SDS011;7846;48.830;9.116;2023-03-14T04:25:49;2.03;;;0.80;;
15488;SDS011;7846;48.830;9.116;2023-03-14T04:28:15;2.07;;;0.80;;
15488;SDS011;7846;48.830;9.116;2023-03-14T04:30:40;2.23;;;0.63;;
15488;SDS011;7846;48.830;9.116;2023-03-14T04:33:06;1.60;;;0.90;;
15488;SDS011;7846;48.830;9.116;2023-03-14T04:35:32;3.07;;;0.90;;
15488;SDS011;7846;48.830;9.116;2023-03-14T04:37:58;2.43;;;0.80;;
15488;SDS011;7846;48.830;9.116;2023-03-14T04:40:24;2.87;;;0.87;;
15488;SDS011;7846;48.830;9.116;2023-03-14T04:42:50;2.20;;;0.73;;
15488;SDS011;7846;48.830;9.116;2023-03-14T04:45:16;2.13;;;0.87;;
15488;SDS011;7846;48.830;9.116;2023-03-14T04:47:41;2.10;;;0.60;;
15488;SDS011;7846;48.830;9.116;2023-03-14T04:50:07;3.03;;;0.70;;
15488;SDS011;7846;48.830;9.116;2023-03-14T04:52:33;1.47;;;0.73;;
15488;SDS011;7846;48.830;9.116;2023-03-14T04:54:59;2.67;;;0.87;;
15488;SDS011;7846;48.830;9.116;2023-03-14T04:57:25;3.10;;;1.00;;
15488;SDS011;7846;48.830;9.116;2023-03-14T04:59:50;2.87;;;0.83;;
15488;SDS011;7846;48.830;9.116;2023-03-14T05:02:15;2.73;;;1.07;;
15488;SDS011;7846;48.830;9.116;2023-03-14T05:04:41;1.13;;;0.80;;
15488;SDS011;7846;48.830;9.116;2023-03-14T05:07:07;1.20;;;0.83;;
15488;SDS011;7846;48.830;9.116;2023-03-14T05:09:33;2.50;;;1.20;;
15488;SDS011;7846;48.830;9.116;2023-03-14T05:11:59;2.97;;;1.00;;
15488;SDS011;7846;48.830;9.116;2023-03-14T05:14:25;2.77;;;1.23;;
15488;SDS011;7846;48.830;9.116;2023-03-14T05:16:50;1.77;;;0.70;;
15488;SDS011;7846;48.830;9.116;2023-03-14T05:19:16;2.80;;;0.87;;
15488;SDS011;7846;48.830;9.116;2023-03-14T05:21:42;1.10;;;0.70;;
15488;SDS011;7846;48.830;9.116;2023-03-14T05:24:08;2.57;;;0.80;;
15488;SDS011;7846;48.830;9.116;2023-03-14T05:26:33;3.30;;;0.80;;
15488;SDS011;7846;48.830;9.116;2023-03-14T05:28:59;1.97;;;1.10;;
15488;SDS011;7846;48.830;9.116;2023-03-14T05:31:24;3.50;;;1.00;;
15488;SDS011;7846;48.830;9.116;2023-03-14T05:33:49;3.10;;;1.17;;
15488;SDS011;7846;48.830;9.116;2023-03-14T05:40:17;2.17;;;0.93;;
15488;SDS011;7846;48.830;9.116;2023-03-14T05:43:19;1.97;;;0.93;;
15488;SDS011;7846;48.830;9.116;2023-03-14T05:46:03;1.60;;;1.00;;
15488;SDS011;7846;48.830;9.116;2023-03-14T05:48:47;3.90;;;0.80;;
15488;SDS011;7846;48.830;9.116;2023-03-14T05:51:22;2.27;;;1.03;;
15488;SDS011;7846;48.830;9.116;2023-03-14T05:53:51;1.90;;;0.93;;
15488;SDS011;7846;48.830;9.116;2023-03-14T05:56:20;0.63;;;0.60;;
15488;SDS011;7846;48.830;9.116;2023-03-14T05:58:46;2.43;;;0.70;;
15488;SDS011;7846;48.830;9.116;2023-03-14T06:01:17;3.67;;;1.00;;
15488;SDS011;7846;48.830;9.116;2023-03-14T06:09:53;2.27;;;0.80;;
15488;SDS011;7846;48.830;9.116;2023-03-14T06:12:24;4.50;;;0.90;;
15488;SDS011;7846;48.830;9.116;2023-03-14T06:14:49;1.27;;;0.70;;
15488;SDS011;7846;48.830;9.116;2023-03-14T06:17:23;2.83;;;1.00;;
15488;SDS011;7846;48.830;9.116;2023-03-14T06:20:05;3.13;;;1.00;;
15488;SDS011;7846;48.830;9.116;2023-03-14T06:22:33;1.53;;;0.70;;
15488;SDS011;7846;48.830;9.116;2023-03-14T06:25:14;2.07;;;0.70;;
15488;SDS011;7846;48.830;9.116;2023-03-14T06:27:46;2.87;;;0.80;;
15488;SDS011;7846;48.830;9.116;2023-03-14T06:30:39;1.67;;;0.67;;
15488;SDS011;7846;48.830;9.116;2023-03-14T06:33:14;3.03;;;0.60;;
15488;SDS011;7846;48.830;9.116;2023-03-14T06:35:43;3.27;;;0.87;;
15488;SDS011;7846;48.830;9.116;2023-03-14T06:38:42;2.77;;;0.83;;
15488;SDS011;7846;48.830;9.116;2023-03-14T06:41:09;2.40;;;0.83;;
15488;SDS011;7846;48.830;9.116;2023-03-14T06:43:41;4.73;;;0.90;;
15488;SDS011;7846;48.830;9.116;2023-03-14T06:46:10;2.63;;;0.80;;
15488;SDS011;7846;48.830;9.116;2023-03-14T06:49:08;2.57;;;0.77;;
15488;SDS011;7846;48.830;9.116;2023-03-14T06:55:05;2.40;;;0.80;;
15488;SDS011;7846;48.830;9.116;2023-03-14T07:04:09;1.73;;;0.83;;
15488;SDS011;7846;48.830;9.116;2023-03-14T07:06:37;1.63;;;0.70;;
15488;SDS011;7846;48.830;9.116;2023-03-14T07:09:33;1.20;;;0.70;;
15488;SDS011;7846;48.830;9.116;2023-03-14T07:12:02;1.23;;;0.70;;
15488;SDS011;7846;48.830;9.116;2023-03-14T07:14:48;2.73;;;0.60;;
15488;SDS011;7846;48.830;9.116;2023-03-14T07:20:03;0.93;;;0.40;;
15488;SDS011;7846;48.830;9.116;2023-03-14T07:22:33;1.60;;;0.53;;
15488;SDS011;7846;48.830;9.116;2023-03-14T07:25:05;1.27;;;0.53;;
15488;SDS011;7846;48.830;9.116;2023-03-14T07:28:03;3.97;;;0.63;;
15488;SDS011;7846;48.830;9.116;2023-03-14T07:30:38;1.10;;;0.60;;
15488;SDS011;7846;48.830;9.116;2023-03-14T07:41:26;2.17;;;1.10;;
15488;SDS011;7846;48.830;9.116;2023-03-14T07:43:52;0.60;;;0.47;;
15488;SDS011;7846;48.830;9.116;2023-03-14T07:49:14;1.80;;;0.50;;
15488;SDS011;7846;48.830;9.116;2023-03-14T07:51:41;1.13;;;0.40;;
15488;SDS011;7846;48.830;9.116;2023-03-14T07:54:15;0.50;;;0.50;;
15488;SDS011;7846;48.830;9.116;2023-03-14T07:57:06;1.07;;;0.50;;
15488;SDS011;7846;48.830;9.116;2023-03-14T07:59:31;0.93;;;0.37;;
15488;SDS011;7846;48.830;9.116;2023-03-14T08:01:57;0.43;;;0.43;;
15488;SDS011;7846;48.830;9.116;2023-03-14T08:04:24;1.77;;;0.70;;
15488;SDS011;7846;48.830;9.116;2023-03-14T08:06:49;2.23;;;0.47;;
15488;SDS011;7846;48.830;9.116;2023-03-14T08:09:15;2.43;;;0.70;;
15488;SDS011;7846;48.830;9.116;2023-03-14T08:11:41;0.90;;;0.57;;
15488;SDS011;7846;48.830;9.116;2023-03-14T08:14:07;2.30;;;0.70;;
15488;SDS011;7846;48.830;9.116;2023-03-14T08:16:33;1.70;;;0.63;;
15488;SDS011;7846;48.830;9.116;2023-03-14T08:18:58;0.30;;;0.20;;
15488;SDS011;7846;48.830;9.116;2023-03-14T08:21:23;0.83;;;0.40;;
15488;SDS011;7846;48.830;9.116;2023-03-14T08:23:49;1.97;;;0.63;;
15488;SDS011;7846;48.830;9.116;2023-03-14T08:26:14;2.50;;;0.70;;
15488;SDS011;7846;48.830;9.116;2023-03-14T08:28:39;0.60;;;0.40;;
15488;SDS011;7846;48.830;9.116;2023-03-14T08:31:06;0.80;;;0.50;;
15488;SDS011;7846;48.830;9.116;2023-03-14T08:33:31;1.43;;;0.50;;
15488;SDS011;7846;48.830;9.116;2023-03-14T08:35:58;0.90;;;0.57;;
15488;SDS011;7846;48.830;9.116;2023-03-14T08:38:25;2.67;;;0.67;;
15488;SDS011;7846;48.830;9.116;2023-03-14T08:40:59;0.57;;;0.57;;
15488;SDS011;7846;48.830;9.116;2023-03-14T08:43:26;0.47;;;0.40;;
15488;SDS011;7846;48.830;9.116;2023-03-14T08:45:52;1.40;;;0.37;;
15488;SDS011;7846;48.830;9.116;2023-03-14T08:48:18;0.50;;;0.40;;
15488;SDS011;7846;48.830;9.116;2023-03-14T08:50:44;0.50;;;0.50;;
15488;SDS011;7846;48.830;9.116;2023-03-14T08:53:10;0.80;;;0.80;;
15488;SDS011;7846;48.830;9.116;2023-03-14T08:55:35;0.87;;;0.50;;
15488;SDS011;7846;48.830;9.116;2023-03-14T08:58:00;0.70;;;0.40;;
15488;SDS011;7846;48.830;9.116;2023-03-14T09:00:26;1.30;;;0.57;;
15488;SDS011;7846;48.830;9.116;2023-03-14T09:02:52;1.00;;;0.33;;
15488;SDS011;7846;48.830;9.116;2023-03-14T09:05:17;0.33;;;0.33;;
15488;SDS011;7846;48.830;9.116;2023-03-14T09:07:43;0.93;;;0.60;;
15488;SDS011;7846;48.830;9.116;2023-03-14T09:10:09;0.30;;;0.30;;
15488;SDS011;7846;48.830;9.116;2023-03-14T09:12:35;0.77;;;0.40;;
15488;SDS011;7846;48.830;9.116;2023-03-14T09:15:00;0.40;;;0.40;;
15488;SDS011;7846;48.830;9.116;2023-03-14T09:17:26;0.33;;;0.33;;
15488;SDS011;7846;48.830;9.116;2023-03-14T09:19:52;0.67;;;0.47;;
15488;SDS011;7846;48.830;9.116;2023-03-14T09:22:17;0.50;;;0.30;;
15488;SDS011;7846;48.830;9.116;2023-03-14T09:24:42;0.43;;;0.40;;
15488;SDS011;7846;48.830;9.116;2023-03-14T09:27:08;1.10;;;0.40;;
15488;SDS011;7846;48.830;9.116;2023-03-14T09:29:34;0.53;;;0.30;;
15488;SDS011;7846;48.830;9.116;2023-03-14T09:32:01;0.47;;;0.43;;
15488;SDS011;7846;48.830;9.116;2023-03-14T09:34:26;0.40;;;0.40;;
15488;SDS011;7846;48.830;9.116;2023-03-14T09:36:53;0.93;;;0.43;;
15488;SDS011;7846;48.830;9.116;2023-03-14T09:39:18;0.40;;;0.40;;
15488;SDS011;7846;48.830;9.116;2023-03-14T09:41:44;0.30;;;0.30;;
15488;SDS011;7846;48.830;9.116;2023-03-14T09:46:55;1.03;;;0.20;;
15488;SDS011;7846;48.830;9.116;2023-03-14T09:49:30;1.37;;;0.40;;
15488;SDS011;7846;48.830;9.116;2023-03-14T09:51:58;0.30;;;0.30;;
15488;SDS011;7846;48.830;9.116;2023-03-14T09:54:30;0.43;;;0.20;;
15488;SDS011;7846;48.830;9.116;2023-03-14T09:56:59;0.93;;;0.40;;
15488;SDS011;7846;48.830;9.116;2023-03-14T09:59:25;0.90;;;0.30;;
15488;SDS011;7846;48.830;9.116;2023-03-14T10:01:53;0.90;;;0.53;;
15488;SDS011;7846;48.830;9.116;2023-03-14T10:04:22;0.40;;;0.40;;
15488;SDS011;7846;48.830;9.116;2023-03-14T10:06:48;0.40;;;0.40;;
15488;SDS011;7846;48.830;9.116;2023-03-14T10:09:23;0.20;;;0.20;;
15488;SDS011;7846;48.830;9.116;2023-03-14T10:11:54;2.67;;;0.50;;
15488;SDS011;7846;48.830;9.116;2023-03-14T10:14:34;2.67;;;0.33;;
15488;SDS011;7846;48.830;9.116;2023-03-14T10:17:06;1.07;;;0.40;;
15488;SDS011;7846;48.830;9.116;2023-03-14T10:19:34;0.50;;;0.30;;
15488;SDS011;7846;48.830;9.116;2023-03-14T10:22:02;0.30;;;0.30;;
15488;SDS011;7846;48.830;9.116;2023-03-14T10:24:35;0.30;;;0.30;;
15488;SDS011;7846;48.830;9.116;2023-03-14T10:27:03;0.27;;;0.27;;
15488;SDS011;7846;48.830;9.116;2023-03-14T10:29:32;1.33;;;0.30;;
15488;SDS011;7846;48.830;9.116;2023-03-14T10:32:05;0.40;;;0.40;;
15488;SDS011;7846;48.830;9.116;2023-03-14T10:34:36;0.20;;;0.20;;
15488;SDS011;7846;48.830;9.116;2023-03-14T10:37:21;3.13;;;0.20;;
15488;SDS011;7846;48.830;9.116;2023-03-14T10:39:51;0.20;;;0.20;;
15488;SDS011;7846;48.830;9.116;2023-03-14T10:44:55;1.50;;;0.30;;
15488;SDS011;7846;48.830;9.116;2023-03-14T10:47:23;0.37;;;0.37;;
15488;SDS011;7846;48.830;9.116;2023-03-14T10:49:50;0.37;;;0.33;;
15488;SDS011;7846;48.830;9.116;2023-03-14T10:52:19;0.47;;;0.30;;
15488;SDS011;7846;48.830;9.116;2023-03-14T10:55:04;0.20;;;0.20;;
15488;SDS011;7846;48.830;9.116;2023-03-14T10:57:40;0.30;;;0.20;;
15488;SDS011;7846;48.830;9.116;2023-03-14T11:00:09;0.77;;;0.20;;
15488;SDS011;7846;48.830;9.116;2023-03-14T11:02:54;0.47;;;0.20;;
15488;SDS011;7846;48.830;9.116;2023-03-14T11:05:40;0.30;;;0.30;;
15488;SDS011;7846;48.830;9.116;2023-03-14T11:08:15;0.30;;;0.27;;
15488;SDS011;7846;48.830;9.116;2023-03-14T11:10:49;0.30;;;0.30;;
15488;SDS011;7846;48.830;9.116;2023-03-14T11:15:53;0.40;;;0.40;;
15488;SDS011;7846;48.830;9.116;2023-03-14T11:21:36;0.50;;;0.30;;
15488;SDS011;7846;48.830;9.116;2023-03-14T11:24:26;0.70;;;0.30;;
15488;SDS011;7846;48.830;9.116;2023-03-14T11:29:55;0.50;;;0.40;;
15488;SDS011;7846;48.830;9.116;2023-03-14T11:32:40;0.30;;;0.30;;
15488;SDS011;7846;48.830;9.116;2023-03-14T11:38:01;0.37;;;0.30;;
15488;SDS011;7846;48.830;9.116;2023-03-14T11:40:35;1.80;;;0.30;;
15488;SDS011;7846;48.830;9.116;2023-03-14T11:43:17;0.67;;;0.17;;
15488;SDS011;7846;48.830;9.116;2023-03-14T11:45:49;0.37;;;0.20;;
15488;SDS011;7846;48.830;9.116;2023-03-14T11:48:22;0.40;;;0.30;;
15488;SDS011;7846;48.830;9.116;2023-03-14T11:50:55;0.33;;;0.33;;
15488;SDS011;7846;48.830;9.116;2023-03-14T11:53:28;0.20;;;0.20;;
15488;SDS011;7846;48.830;9.116;2023-03-14T11:56:06;1.20;;;0.30;;
15488;SDS011;7846;48.830;9.116;2023-03-14T11:58:43;0.13;;;0.10;;
15488;SDS011;7846;48.830;9.116;2023-03-14T12:01:16;0.30;;;0.30;;
15488;SDS011;7846;48.830;9.116;2023-03-14T12:03:49;0.57;;;0.30;;
15488;SDS011;7846;48.830;9.116;2023-03-14T12:06:28;0.40;;;0.37;;
15488;SDS011;7846;48.830;9.116;2023-03-14T12:09:03;0.40;;;0.30;;
15488;SDS011;7846;48.830;9.116;2023-03-14T12:11:34;0.33;;;0.20;;
15488;SDS011;7846;48.830;9.116;2023-03-14T12:16:54;0.20;;;0.20;;
15488;SDS011;7846;48.830;9.116;2023-03-14T12:21:51;0.33;;;0.23;;
15488;SDS011;7846;48.830;9.116;2023-03-14T12:24:25;0.50;;;0.20;;
15488;SDS011;7846;48.830;9.116;2023-03-14T12:26:54;0.30;;;0.20;;
15488;SDS011;7846;48.830;9.116;2023-03-14T12:29:21;0.30;;;0.30;;
15488;SDS011;7846;48.830;9.116;2023-03-14T12:32:09;0.50;;;0.50;;
15488;SDS011;7846;48.830;9.116;2023-03-14T12:34:47;0.40;;;0.40;;
15488;SDS011;7846;48.830;9.116;2023-03-14T12:37:20;3.57;;;0.50;;
15488;SDS011;7846;48.830;9.116;2023-03-14T12:45:31;0.70;;;0.50;;
15488;SDS011;7846;48.830;9.116;2023-03-14T12:48:11;0.60;;;0.60;;
15488;SDS011;7846;48.830;9.116;2023-03-14T12:50:53;0.63;;;0.50;;
15488;SDS011;7846;48.830;9.116;2023-03-14T12:59:30;1.37;;;0.70;;
15488;SDS011;7846;48.830;9.116;2023-03-14T13:01:59;0.47;;;0.47;;
15488;SDS011;7846;48.830;9.116;2023-03-14T13:04:31;0.80;;;0.50;;
15488;SDS011;7846;48.830;9.116;2023-03-14T13:07:02;1.50;;;0.63;;
15488;SDS011;7846;48.830;9.116;2023-03-14T13:11:54;0.93;;;0.60;;
15488;SDS011;7846;48.830;9.116;2023-03-14T13:14:20;4.00;;;0.50;;
15488;SDS011;7846;48.830;9.116;2023-03-14T13:16:47;0.93;;;0.47;;
15488;SDS011;7846;48.830;9.116;2023-03-14T13:19:15;0.67;;;0.40;;
15488;SDS011;7846;48.830;9.116;2023-03-14T13:21:45;1.57;;;0.60;;
15488;SDS011;7846;48.830;9.116;2023-03-14T13:24:26;0.30;;;0.30;;
15488;SDS011;7846;48.830;9.116;2023-03-14T13:26:53;1.27;;;0.50;;
15488;SDS011;7846;48.830;9.116;2023-03-14T13:31:59;0.97;;;0.50;;
15488;SDS011;7846;48.830;9.116;2023-03-14T13:34:29;1.00;;;0.50;;
15488;SDS011;7846;48.830;9.116;2023-03-14T13:36:56;0.43;;;0.40;;
15488;SDS011;7846;48.830;9.116;2023-03-14T13:39:23;1.03;;;0.40;;
15488;SDS011;7846;48.830;9.116;2023-03-14T13:41:50;0.50;;;0.50;;
15488;SDS011;7846;48.830;9.116;2023-03-14T13:44:31;0.77;;;0.50;;
15488;SDS011;7846;48.830;9.116;2023-03-14T13:47:02;1.77;;;0.53;;
15488;SDS011;7846;48.830;9.116;2023-03-14T13:49:29;1.00;;;0.57;;
15488;SDS011;7846;48.830;9.116;2023-03-14T13:52:00;2.10;;;0.57;;
15488;SDS011;7846;48.830;9.116;2023-03-14T13:54:27;0.23;;;0.23;;
15488;SDS011;7846;48.830;9.116;2023-03-14T13:57:04;0.97;;;0.60;;
15488;SDS011;7846;48.830;9.116;2023-03-14T13:59:32;1.40;;;0.50;;
15488;SDS011;7846;48.830;9.116;2023-03-14T14:02:00;1.60;;;0.60;;
15488;SDS011;7846;48.830;9.116;2023-03-14T14:04:30;3.23;;;0.60;;
15488;SDS011;7846;48.830;9.116;2023-03-14T14:06:58;1.57;;;0.80;;
15488;SDS011;7846;48.830;9.116;2023-03-14T14:09:38;2.43;;;0.50;;
15488;SDS011;7846;48.830;9.116;2023-03-14T14:12:05;0.60;;;0.37;;
15488;SDS011;7846;48.830;9.116;2023-03-14T14:14:39;1.53;;;0.73;;
15488;SDS011;7846;48.830;9.116;2023-03-14T14:17:09;0.73;;;0.50;;
15488;SDS011;7846;48.830;9.116;2023-03-14T14:19:37;1.57;;;0.50;;
15488;SDS011;7846;48.830;9.116;2023-03-14T14:22:04;0.60;;;0.33;;
15488;SDS011;7846;48.830;9.116;2023-03-14T14:24:31;2.10;;;0.60;;
15488;SDS011;7846;48.830;9.116;2023-03-14T14:26:59;0.53;;;0.40;;
15488;SDS011;7846;48.830;9.116;2023-03-14T14:29:34;0.63;;;0.47;;
15488;SDS011;7846;48.830;9.116;2023-03-14T14:34:27;3.60;;;0.60;;
15488;SDS011;7846;48.830;9.116;2023-03-14T14:36:53;1.90;;;0.60;;
15488;SDS011;7846;48.830;9.116;2023-03-14T14:39:20;1.37;;;0.40;;
15488;SDS011;7846;48.830;9.116;2023-03-14T14:41:48;2.20;;;0.70;;
15488;SDS011;7846;48.830;9.116;2023-03-14T14:44:21;2.20;;;0.60;;
15488;SDS011;7846;48.830;9.116;2023-03-14T14:46:54;1.37;;;0.50;;
15488;SDS011;7846;48.830;9.116;2023-03-14T14:49:20;1.50;;;0.60;;
15488;SDS011;7846;48.830;9.116;2023-03-14T14:51:49;2.00;;;0.73;;
15488;SDS011;7846;48.830;9.116;2023-03-14T14:54:17;0.87;;;0.50;;
15488;SDS011;7846;48.830;9.116;2023-03-14T14:56:48;2.53;;;0.70;;
15488;SDS011;7846;48.830;9.116;2023-03-14T14:59:20;1.90;;;0.70;;
15488;SDS011;7846;48.830;9.116;2023-03-14T15:02:00;1.67;;;0.43;;
15488;SDS011;7846;48.830;9.116;2023-03-14T15:04:29;2.27;;;0.90;;
15488;SDS011;7846;48.830;9.116;2023-03-14T15:06:56;2.47;;;0.80;;
15488;SDS011;7846;48.830;9.116;2023-03-14T15:09:22;2.23;;;0.80;;
15488;SDS011;7846;48.830;9.116;2023-03-14T15:11:47;1.87;;;0.70;;
15488;SDS011;7846;48.830;9.116;2023-03-14T15:14:13;1.93;;;0.70;;
15488;SDS011;7846;48.830;9.116;2023-03-14T15:16:39;2.93;;;0.70;;
15488;SDS011;7846;48.830;9.116;2023-03-14T15:19:10;2.90;;;0.63;;
15488;SDS011;7846;48.830;9.116;2023-03-14T15:21:37;1.63;;;0.70;;
15488;SDS011;7846;48.830;9.116;2023-03-14T15:24:03;2.90;;;0.77;;
15488;SDS011;7846;48.830;9.116;2023-03-14T15:26:30;1.20;;;0.70;;
15488;SDS011;7846;48.830;9.116;2023-03-14T15:28:56;1.40;;;0.63;;
15488;SDS011;7846;48.830;9.116;2023-03-14T15:31:21;2.30;;;0.67;;
15488;SDS011;7846;48.830;9.116;2023-03-14T15:33:47;1.50;;;0.70;;
15488;SDS011;7846;48.830;9.116;2023-03-14T15:36:19;2.60;;;0.80;;
15488;SDS011;7846;48.830;9.116;2023-03-14T15:38:48;1.60;;;0.90;;
15488;SDS011;7846;48.830;9.116;2023-03-14T15:41:14;1.93;;;1.07;;
15488;SDS011;7846;48.830;9.116;2023-03-14T15:43:40;2.67;;;0.63;;
15488;SDS011;7846;48.830;9.116;2023-03-14T15:46:08;2.77;;;0.80;;
15488;SDS011;7846;48.830;9.116;2023-03-14T15:48:34;0.83;;;0.60;;
15488;SDS011;7846;48.830;9.116;2023-03-14T15:50:59;3.03;;;0.90;;
15488;SDS011;7846;48.830;9.116;2023-03-14T15:53:25;1.87;;;0.80;;
15488;SDS011;7846;48.830;9.116;2023-03-14T15:55:51;2.67;;;0.60;;
15488;SDS011;7846;48.830;9.116;2023-03-14T15:58:17;1.17;;;0.83;;
15488;SDS011;7846;48.830;9.116;2023-03-14T16:00:43;1.57;;;0.60;;
15488;SDS011;7846;48.830;9.116;2023-03-14T16:03:09;3.00;;;0.90;;
15488;SDS011;7846;48.830;9.116;2023-03-14T16:05:35;2.70;;;0.90;;
15488;SDS011;7846;48.830;9.116;2023-03-14T16:08:01;1.37;;;0.80;;
15488;SDS011;7846;48.830;9.116;2023-03-14T16:10:28;1.57;;;0.70;;
15488;SDS011;7846;48.830;9.116;2023-03-14T16:12:53;3.03;;;0.70;;
15488;SDS011;7846;48.830;9.116;2023-03-14T16:15:18;1.80;;;0.83;;
15488;SDS011;7846;48.830;9.116;2023-03-14T16:17:44;2.17;;;0.80;;
15488;SDS011;7846;48.830;9.116;2023-03-14T16:20:10;2.80;;;0.83;;
15488;SDS011;7846;48.830;9.116;2023-03-14T16:22:35;1.57;;;0.80;;
15488;SDS011;7846;48.830;9.116;2023-03-14T16:25:05;3.33;;;0.80;;
15488;SDS011;7846;48.830;9.116;2023-03-14T16:27:31;2.03;;;0.70;;
15488;SDS011;7846;48.830;9.116;2023-03-14T16:29:58;2.23;;;1.03;;
15488;SDS011;7846;48.830;9.116;2023-03-14T16:32:24;2.97;;;1.13;;